createdAt,value
2019-03-20T00:01:01.634Z,96.89
2019-03-20T00:03:30.416Z,96.96
2019-03-20T00:05:59.165Z,96.63
2019-03-20T00:08:27.870Z,96.69
2019-03-20T00:10:56.641Z,97.17
2019-03-20T00:13:25.374Z,97.66
2019-03-20T00:15:54.109Z,97.94
2019-03-20T00:18:22.873Z,98.44
2019-03-20T00:20:54.615Z,98.34
2019-03-20T00:23:23.340Z,98.09
2019-03-20T00:25:52.226Z,97.94
2019-03-20T00:28:20.953Z,96.88
2019-03-20T00:30:49.695Z,97.59
2019-03-20T00:33:19.344Z,97.49
2019-03-20T00:35:48.069Z,97.59
2019-03-20T00:38:16.874Z,98.90
2019-03-20T00:40:45.750Z,99.95
2019-03-20T00:43:14.489Z,100.00
2019-03-20T00:45:43.224Z,100.00
2019-03-20T00:48:12.001Z,99.96
2019-03-20T00:50:40.724Z,99.96
2019-03-20T00:53:09.464Z,100.00
2019-03-20T00:55:38.233Z,100.00
2019-03-20T00:58:06.970Z,100.00
2019-03-20T01:00:35.703Z,98.81
2019-03-20T01:03:04.792Z,99.20
2019-03-20T01:05:33.520Z,99.93
2019-03-20T01:08:02.256Z,100.00
2019-03-20T01:10:31.159Z,100.00
2019-03-20T01:12:59.897Z,100.00
2019-03-20T01:15:28.630Z,100.00
2019-03-20T01:17:57.466Z,100.00
2019-03-20T01:20:26.196Z,100.00
2019-03-20T01:22:54.937Z,100.00
2019-03-20T01:25:23.756Z,100.00
2019-03-20T01:27:52.484Z,100.00
2019-03-20T01:30:32.443Z,100.00
2019-03-20T01:33:02.668Z,100.00
2019-03-20T01:35:31.478Z,100.00
2019-03-20T01:38:00.362Z,100.00
2019-03-20T01:40:29.192Z,100.00
2019-03-20T01:42:57.916Z,100.00
2019-03-20T01:45:26.834Z,100.00
2019-03-20T01:47:55.568Z,100.00
2019-03-20T01:50:24.294Z,100.00
2019-03-20T01:52:53.211Z,100.00
2019-03-20T01:55:21.948Z,100.00
2019-03-20T01:57:50.777Z,100.00
2019-03-20T02:00:19.765Z,100.00
2019-03-20T02:02:48.504Z,100.00
2019-03-20T02:05:17.238Z,100.00
2019-03-20T02:07:46.426Z,100.00
2019-03-20T02:10:16.833Z,100.00
2019-03-20T02:12:45.568Z,100.00
2019-03-20T02:15:17.369Z,100.00
2019-03-20T02:17:46.203Z,100.00
2019-03-20T02:20:21.597Z,100.00
2019-03-20T02:22:50.330Z,100.00
2019-03-20T02:25:19.061Z,100.00
2019-03-20T02:27:48.070Z,100.00
2019-03-20T02:30:20.511Z,100.00
2019-03-20T02:32:49.251Z,100.00
2019-03-20T02:35:18.235Z,100.00
2019-03-20T02:37:47.002Z,100.00
2019-03-20T02:40:16.447Z,100.00
2019-03-20T02:42:45.221Z,100.00
2019-03-20T02:45:15.932Z,100.00
2019-03-20T02:47:44.650Z,100.00
2019-03-20T02:50:14.688Z,100.00
2019-03-20T02:52:43.412Z,100.00
2019-03-20T02:55:12.957Z,100.00
2019-03-20T02:57:41.799Z,100.00
2019-03-20T03:00:15.988Z,100.00
2019-03-20T03:02:44.824Z,100.00
2019-03-20T03:05:14.785Z,100.00
2019-03-20T03:07:43.508Z,100.00
2019-03-20T03:10:19.678Z,100.00
2019-03-20T03:12:48.394Z,100.00
2019-03-20T03:15:17.227Z,100.00
2019-03-20T03:17:46.492Z,100.00
2019-03-20T03:20:16.034Z,100.00
2019-03-20T03:22:45.059Z,100.00
2019-03-20T03:25:14.606Z,100.00
2019-03-20T03:27:43.345Z,100.00
2019-03-20T03:30:19.523Z,100.00
2019-03-20T03:32:48.286Z,100.00
2019-03-20T03:35:19.507Z,100.00
2019-03-20T03:37:47.560Z,100.00
2019-03-20T03:40:17.532Z,100.00
2019-03-20T03:42:46.522Z,100.00
2019-03-20T03:45:16.624Z,100.00
2019-03-20T03:47:45.777Z,100.00
2019-03-20T03:50:14.602Z,100.00
2019-03-20T03:52:43.415Z,100.00
2019-03-20T03:55:13.655Z,100.00
2019-03-20T03:57:42.676Z,100.00
2019-03-20T04:00:19.244Z,100.00
2019-03-20T04:02:47.987Z,100.00
2019-03-20T04:05:16.805Z,100.00
2019-03-20T04:07:45.699Z,100.00
2019-03-20T04:10:19.006Z,100.00
2019-03-20T04:12:47.736Z,100.00
2019-03-20T04:15:17.259Z,100.00
2019-03-20T04:17:46.047Z,100.00
2019-03-20T04:20:21.087Z,100.00
2019-03-20T04:22:49.941Z,100.00
2019-03-20T04:25:18.669Z,100.00
2019-03-20T04:27:47.437Z,100.00
2019-03-20T04:30:17.304Z,100.00
2019-03-20T04:32:46.032Z,100.00
2019-03-20T04:35:15.243Z,100.00
2019-03-20T04:37:44.501Z,100.00
2019-03-20T04:40:17.437Z,100.00
2019-03-20T04:42:46.169Z,100.00
2019-03-20T04:45:15.690Z,100.00
2019-03-20T04:47:44.519Z,100.00
2019-03-20T04:50:19.008Z,100.00
2019-03-20T04:52:49.071Z,100.00
2019-03-20T04:55:17.805Z,100.00
2019-03-20T04:57:46.543Z,100.00
2019-03-20T05:00:20.165Z,100.00
2019-03-20T05:02:48.897Z,100.00
2019-03-20T05:05:17.734Z,100.00
2019-03-20T05:07:46.642Z,100.00
2019-03-20T05:10:19.989Z,100.00
2019-03-20T05:12:48.814Z,100.00
2019-03-20T05:15:17.613Z,100.00
2019-03-20T05:17:46.370Z,100.00
2019-03-20T05:20:23.174Z,100.00
2019-03-20T05:22:51.897Z,100.00
2019-03-20T05:25:20.618Z,100.00
2019-03-20T05:27:49.382Z,99.80
2019-03-20T05:30:18.417Z,98.64
2019-03-20T05:32:47.246Z,99.68
2019-03-20T05:35:16.237Z,100.00
2019-03-20T05:37:44.963Z,100.00
2019-03-20T05:40:15.196Z,100.00
2019-03-20T05:42:44.087Z,100.00
2019-03-20T05:45:17.383Z,100.00
2019-03-20T05:47:46.116Z,100.00
2019-03-20T05:50:16.019Z,98.38
2019-03-20T05:52:44.736Z,98.75
2019-03-20T05:55:13.567Z,99.78
2019-03-20T05:57:42.462Z,99.28
2019-03-20T06:00:16.957Z,99.39
2019-03-20T06:02:45.682Z,98.70
2019-03-20T06:05:14.504Z,97.88
2019-03-20T06:07:43.234Z,97.39
2019-03-20T06:10:17.207Z,97.31
2019-03-20T06:12:46.091Z,93.78
2019-03-20T06:15:15.317Z,92.56
2019-03-20T06:17:46.727Z,89.75
2019-03-20T06:20:15.241Z,89.27
2019-03-20T06:22:43.974Z,86.96
2019-03-20T06:25:16.420Z,84.49
2019-03-20T06:27:45.226Z,83.34
2019-03-20T06:30:19.304Z,82.77
2019-03-20T06:32:48.030Z,81.37
2019-03-20T06:35:16.969Z,82.18
2019-03-20T06:37:45.707Z,82.90
2019-03-20T06:40:16.042Z,80.14
2019-03-20T06:42:44.943Z,79.37
2019-03-20T06:45:15.658Z,81.08
2019-03-20T06:47:44.392Z,81.05
2019-03-20T06:50:21.180Z,80.64
2019-03-20T06:52:49.909Z,79.31
2019-03-20T06:55:18.644Z,80.09
2019-03-20T06:57:47.482Z,79.52
2019-03-20T07:00:19.132Z,79.90
2019-03-20T07:02:48.018Z,77.12
2019-03-20T07:05:34.821Z,74.98
2019-03-20T07:08:03.516Z,77.23
2019-03-20T07:10:52.006Z,76.04
2019-03-20T07:13:20.741Z,76.17
2019-03-20T07:15:49.472Z,75.13
2019-03-20T07:18:18.268Z,74.31
2019-03-20T07:20:47.017Z,73.88
2019-03-20T07:23:15.750Z,75.86
2019-03-20T07:25:44.643Z,75.75
2019-03-20T07:28:13.376Z,72.43
2019-03-20T07:30:42.105Z,74.34
2019-03-20T07:33:10.881Z,72.37
2019-03-20T07:35:39.650Z,71.11
2019-03-20T07:38:08.347Z,71.15
2019-03-20T07:40:37.241Z,71.48
2019-03-20T07:43:09.193Z,75.09
2019-03-20T07:45:36.413Z,69.08
2019-03-20T07:48:05.397Z,69.86
2019-03-20T07:50:34.122Z,68.49
2019-03-20T07:53:02.856Z,68.26
2019-03-20T07:55:31.749Z,68.49
2019-03-20T07:58:00.478Z,67.63
2019-03-20T08:00:29.202Z,68.27
2019-03-20T08:02:58.083Z,68.32
2019-03-20T08:05:29.368Z,67.26
2019-03-20T08:08:06.728Z,71.41
2019-03-20T08:10:27.887Z,66.92
2019-03-20T08:12:56.614Z,67.83
2019-03-20T08:15:25.352Z,63.74
2019-03-20T08:17:54.241Z,64.99
2019-03-20T08:20:25.489Z,65.28
2019-03-20T08:22:54.211Z,65.00
2019-03-20T08:25:23.044Z,64.57
2019-03-20T08:27:51.773Z,67.97
2019-03-20T08:30:20.505Z,67.18
2019-03-20T08:32:49.399Z,67.46
2019-03-20T08:35:18.134Z,67.72
2019-03-20T08:37:46.860Z,66.27
2019-03-20T08:40:16.783Z,63.15
2019-03-20T08:42:45.510Z,63.53
2019-03-20T08:45:16.197Z,64.81
2019-03-20T08:47:45.304Z,64.26
2019-03-20T08:50:18.968Z,61.00
2019-03-20T08:52:47.778Z,59.93
2019-03-20T08:55:18.809Z,60.50
2019-03-20T08:57:47.729Z,60.98
2019-03-20T09:00:19.091Z,61.93
2019-03-20T09:02:48.006Z,61.77
2019-03-20T09:05:17.322Z,59.45
2019-03-20T09:07:47.457Z,60.58
2019-03-20T09:10:24.380Z,60.57
2019-03-20T09:12:53.209Z,58.21
2019-03-20T09:15:22.431Z,57.04
2019-03-20T09:17:51.397Z,60.83
2019-03-20T09:20:21.135Z,58.93
2019-03-20T09:22:49.850Z,58.56
2019-03-20T09:25:22.935Z,59.22
2019-03-20T09:27:51.672Z,59.01
2019-03-20T09:30:21.696Z,55.96
2019-03-20T09:32:50.586Z,57.47
2019-03-20T09:35:19.309Z,54.28
2019-03-20T09:37:52.399Z,55.74
2019-03-20T09:40:23.811Z,56.39
2019-03-20T09:42:52.845Z,57.04
2019-03-20T09:45:22.663Z,53.06
2019-03-20T09:47:51.481Z,53.43
2019-03-20T09:50:23.906Z,54.19
2019-03-20T09:52:52.740Z,53.71
2019-03-20T09:55:21.893Z,51.64
2019-03-20T09:57:50.617Z,52.82
2019-03-20T10:00:26.163Z,51.65
2019-03-20T10:02:55.052Z,50.89
2019-03-20T10:05:23.785Z,48.39
2019-03-20T10:07:52.691Z,48.73
2019-03-20T10:10:28.223Z,48.61
2019-03-20T10:12:56.963Z,45.14
2019-03-20T10:15:30.360Z,47.24
2019-03-20T10:17:59.375Z,51.03
2019-03-20T10:20:28.078Z,45.61
2019-03-20T10:22:56.798Z,46.74
2019-03-20T10:25:25.554Z,46.30
2019-03-20T10:27:54.277Z,45.74
2019-03-20T10:30:27.285Z,44.63
2019-03-20T10:32:56.117Z,44.95
2019-03-20T10:35:24.942Z,45.90
2019-03-20T10:37:53.661Z,44.56
2019-03-20T10:40:23.128Z,42.86
2019-03-20T10:42:51.944Z,45.34
2019-03-20T10:45:20.876Z,43.87
2019-03-20T10:47:52.918Z,44.63
2019-03-20T10:50:22.297Z,47.91
2019-03-20T10:52:51.027Z,45.29
2019-03-20T10:55:19.859Z,44.47
2019-03-20T10:57:48.688Z,45.13
2019-03-20T11:00:22.012Z,47.40
2019-03-20T11:02:51.111Z,42.53
2019-03-20T11:05:20.044Z,43.59
2019-03-20T11:07:48.753Z,45.36
2019-03-20T11:10:28.185Z,44.81
2019-03-20T11:12:57.325Z,49.75
2019-03-20T11:15:26.539Z,44.83
2019-03-20T11:17:55.403Z,47.81
2019-03-20T11:20:24.967Z,42.44
2019-03-20T11:22:53.691Z,43.63
2019-03-20T11:25:27.396Z,43.26
2019-03-20T11:27:56.241Z,44.60
2019-03-20T11:30:26.840Z,45.95
2019-03-20T11:32:55.865Z,46.98
2019-03-20T11:35:26.268Z,46.96
2019-03-20T11:37:54.998Z,44.44
2019-03-20T11:40:40.215Z,42.13
2019-03-20T11:43:08.953Z,43.49
2019-03-20T11:45:37.686Z,42.16
2019-03-20T11:48:06.574Z,44.48
2019-03-20T11:50:43.119Z,42.93
2019-03-20T11:53:11.885Z,43.85
2019-03-20T11:55:40.647Z,42.53
2019-03-20T11:58:09.376Z,43.54
2019-03-20T12:00:38.286Z,44.16
2019-03-20T12:03:07.011Z,44.46
2019-03-20T12:05:35.746Z,43.29
2019-03-20T12:08:04.852Z,44.99
2019-03-20T12:10:34.183Z,47.16
2019-03-20T12:13:03.006Z,46.99
2019-03-20T12:15:31.912Z,46.36
2019-03-20T12:18:00.641Z,46.12
2019-03-20T12:20:29.363Z,45.53
2019-03-20T12:22:58.162Z,47.20
2019-03-20T12:25:34.177Z,45.73
2019-03-20T12:28:03.059Z,44.86
2019-03-20T12:30:35.975Z,46.00
2019-03-20T12:33:05.262Z,45.54
2019-03-20T12:35:45.281Z,45.16
2019-03-20T12:38:15.322Z,45.48
2019-03-20T12:40:44.428Z,47.06
2019-03-20T12:43:13.272Z,46.87
2019-03-20T12:45:41.999Z,45.93
2019-03-20T12:48:16.017Z,45.79
2019-03-20T12:50:44.907Z,45.28
2019-03-20T12:53:16.409Z,47.99
2019-03-20T12:55:45.178Z,47.51
2019-03-20T12:58:14.150Z,50.84
2019-03-20T13:00:42.890Z,49.47
2019-03-20T13:05:40.435Z,52.45
2019-03-20T13:08:09.163Z,52.27
2019-03-20T13:10:37.887Z,52.47
2019-03-20T13:13:06.713Z,52.74
2019-03-20T13:15:35.424Z,53.48
2019-03-20T13:18:04.254Z,52.09
2019-03-20T13:20:33.540Z,52.78
2019-03-20T13:23:14.157Z,53.05
2019-03-20T13:25:43.046Z,52.48
2019-03-20T13:28:11.778Z,52.45
2019-03-20T13:30:52.305Z,51.22
2019-03-20T13:33:25.763Z,50.69
2019-03-20T13:35:51.506Z,51.33
2019-03-20T13:38:20.302Z,52.44
2019-03-20T13:40:49.021Z,51.96
2019-03-20T13:43:17.751Z,49.13
2019-03-20T13:45:46.556Z,49.71
2019-03-20T13:48:15.291Z,49.07
2019-03-20T13:50:44.025Z,44.08
2019-03-20T13:53:15.198Z,44.11
2019-03-20T13:55:43.240Z,43.90
2019-03-20T13:58:11.978Z,47.67
2019-03-20T14:00:40.971Z,45.58
2019-03-20T14:03:09.693Z,47.29
2019-03-20T14:05:38.413Z,47.05
2019-03-20T14:08:07.213Z,47.17
2019-03-20T14:10:49.533Z,46.29
2019-03-20T14:13:06.390Z,45.76
2019-03-20T14:15:35.168Z,45.93
2019-03-20T14:18:03.992Z,44.41
2019-03-20T14:20:34.181Z,46.13
2019-03-20T14:23:02.987Z,44.56
2019-03-20T14:25:31.705Z,44.32
2019-03-20T14:28:00.432Z,44.17
2019-03-20T14:30:33.873Z,43.64
2019-03-20T14:33:02.591Z,43.21
2019-03-20T14:35:31.317Z,42.92
2019-03-20T14:38:00.090Z,42.67
2019-03-20T14:40:36.005Z,42.70
2019-03-20T14:43:03.155Z,42.94
2019-03-20T14:45:32.476Z,42.25
2019-03-20T14:48:01.202Z,43.12
2019-03-20T14:50:36.389Z,45.82
2019-03-20T14:53:04.727Z,44.25
2019-03-20T14:55:33.471Z,43.85
2019-03-20T14:58:02.204Z,43.77
2019-03-20T15:00:32.144Z,45.37
2019-03-20T15:03:00.896Z,44.52
2019-03-20T15:05:29.625Z,45.35
2019-03-20T15:07:58.501Z,46.28
2019-03-20T15:10:29.075Z,47.63
2019-03-20T15:12:57.905Z,47.69
2019-03-20T15:15:46.226Z,48.39
2019-03-20T15:18:14.962Z,47.74
2019-03-20T15:20:43.694Z,48.32
2019-03-20T15:23:12.493Z,48.10
2019-03-20T15:25:41.233Z,48.42
2019-03-20T15:28:09.958Z,49.10
2019-03-20T15:30:38.748Z,50.12
2019-03-20T15:33:07.477Z,48.83
2019-03-20T15:35:36.195Z,49.83
2019-03-20T15:38:05.018Z,48.77
2019-03-20T15:40:33.743Z,48.57
2019-03-20T15:43:02.474Z,48.83
2019-03-20T15:45:31.278Z,50.43
2019-03-20T15:48:00.005Z,51.47
2019-03-20T15:50:28.939Z,50.30
2019-03-20T15:52:57.838Z,51.00
2019-03-20T15:55:34.071Z,51.30
2019-03-20T15:58:02.868Z,51.50
2019-03-20T16:00:31.702Z,51.80
2019-03-20T16:03:15.403Z,60.81
2019-03-20T16:05:44.128Z,66.37
2019-03-20T16:08:12.863Z,68.62
2019-03-20T16:10:41.846Z,70.07
2019-03-20T16:13:10.678Z,71.20
2019-03-20T16:15:39.415Z,71.59
2019-03-20T16:18:08.295Z,72.56
2019-03-20T16:20:37.025Z,72.96
2019-03-20T16:23:05.752Z,73.88
2019-03-20T16:25:34.588Z,74.44
2019-03-20T16:28:03.320Z,75.44
2019-03-20T16:30:35.237Z,75.92
2019-03-20T16:33:04.016Z,76.13
2019-03-20T16:35:32.755Z,76.33
2019-03-20T16:38:01.477Z,76.67
2019-03-20T16:40:37.170Z,77.17
2019-03-20T16:43:06.008Z,77.35
2019-03-20T16:45:36.873Z,77.68
2019-03-20T16:48:06.647Z,77.88
2019-03-20T16:50:35.485Z,77.80
2019-03-20T16:53:04.317Z,77.81
2019-03-20T16:55:33.116Z,77.96
2019-03-20T16:58:01.844Z,77.90
2019-03-20T17:00:32.068Z,77.73
2019-03-20T17:03:00.988Z,78.30
2019-03-20T17:05:30.693Z,78.88
2019-03-20T17:07:59.423Z,79.03
2019-03-20T17:10:42.934Z,79.75
2019-03-20T17:13:13.009Z,80.24
2019-03-20T17:15:43.208Z,80.43
2019-03-20T17:18:12.732Z,80.63
2019-03-20T17:20:41.453Z,80.61
2019-03-20T17:23:10.267Z,80.06
2019-03-20T17:25:39.018Z,80.25
2019-03-20T17:28:09.345Z,80.29
2019-03-20T17:30:43.461Z,80.46
2019-03-20T17:33:12.196Z,80.64
2019-03-20T17:35:40.926Z,80.77
2019-03-20T17:38:09.708Z,80.86
2019-03-20T17:40:40.011Z,80.94
2019-03-20T17:43:11.436Z,80.92
2019-03-20T17:45:40.405Z,81.14
2019-03-20T17:48:11.531Z,81.05
2019-03-20T17:50:40.252Z,81.53
2019-03-20T17:53:09.174Z,82.10
2019-03-20T17:55:37.999Z,82.39
2019-03-20T17:58:06.931Z,82.86
2019-03-20T18:00:37.284Z,83.01
2019-03-20T18:03:07.107Z,82.75
2019-03-20T18:05:35.837Z,81.87
2019-03-20T18:08:08.437Z,81.49
2019-03-20T18:10:37.258Z,81.19
2019-03-20T18:13:07.086Z,80.76
2019-03-20T18:15:38.676Z,80.39
2019-03-20T18:18:08.477Z,79.49
2019-03-20T18:20:37.955Z,79.63
2019-03-20T18:23:08.111Z,79.86
2019-03-20T18:25:36.836Z,79.80
2019-03-20T18:28:05.562Z,79.80
2019-03-20T18:30:37.281Z,79.14
2019-03-20T18:33:06.109Z,77.96
2019-03-20T18:35:34.835Z,77.81
2019-03-20T18:38:03.833Z,77.82
2019-03-20T18:40:32.530Z,77.68
2019-03-20T18:43:01.378Z,77.05
2019-03-20T18:45:30.369Z,76.17
2019-03-20T18:47:59.118Z,75.60
2019-03-20T18:50:28.008Z,74.25
2019-03-20T18:52:56.896Z,74.21
2019-03-20T18:55:25.915Z,74.38
2019-03-20T18:57:54.635Z,74.54
2019-03-20T19:00:28.461Z,75.27
2019-03-20T19:03:17.553Z,75.78
2019-03-20T19:06:01.009Z,76.74
2019-03-20T19:08:29.727Z,77.63
2019-03-20T19:10:58.523Z,78.59
2019-03-20T19:13:27.516Z,79.41
2019-03-20T19:15:56.235Z,79.96
2019-03-20T19:18:24.978Z,80.05
2019-03-20T19:20:53.782Z,80.68
2019-03-20T19:23:22.489Z,80.83
2019-03-20T19:25:51.222Z,81.02
2019-03-20T19:28:20.251Z,81.16
2019-03-20T19:30:48.992Z,81.44
2019-03-20T19:33:17.718Z,81.96
2019-03-20T19:35:46.492Z,82.06
2019-03-20T19:38:17.160Z,82.44
2019-03-20T19:40:51.042Z,83.39
2019-03-20T19:43:24.803Z,84.60
2019-03-20T19:46:03.999Z,86.06
2019-03-20T19:48:41.700Z,86.99
2019-03-20T19:51:18.156Z,87.97
2019-03-20T19:53:52.865Z,87.64
2019-03-20T19:56:23.197Z,86.95
2019-03-20T19:58:51.917Z,86.84
2019-03-20T20:01:27.488Z,86.77
2019-03-20T20:03:56.219Z,86.83
2019-03-20T20:06:24.973Z,86.61
2019-03-20T20:08:53.826Z,86.31
2019-03-20T20:11:22.574Z,86.01
2019-03-20T20:13:51.304Z,84.90
2019-03-20T20:16:20.185Z,84.39
2019-03-20T20:18:48.913Z,83.59
2019-03-20T20:21:17.644Z,83.61
2019-03-20T20:23:46.518Z,82.96
2019-03-20T20:26:15.248Z,82.74
2019-03-20T20:28:43.982Z,82.88
2019-03-20T20:31:12.788Z,83.37
2019-03-20T20:33:41.519Z,83.33
2019-03-20T20:36:10.247Z,83.87
2019-03-20T20:38:39.107Z,83.91
2019-03-20T20:41:07.850Z,84.80
2019-03-20T20:43:36.588Z,85.47
2019-03-20T20:46:05.388Z,86.23
2019-03-20T20:48:34.114Z,86.06
2019-03-20T20:51:02.849Z,86.61
2019-03-20T20:53:31.742Z,86.80
2019-03-20T20:56:00.473Z,87.10
2019-03-20T20:58:29.201Z,86.42
2019-03-20T21:00:58.265Z,86.37
2019-03-20T21:03:27.006Z,86.15
2019-03-20T21:05:55.737Z,86.84
2019-03-20T21:08:24.623Z,86.79
2019-03-20T21:10:53.348Z,86.84
2019-03-20T21:13:22.132Z,87.26
2019-03-20T21:15:51.304Z,86.84
2019-03-20T21:18:48.617Z,86.98
2019-03-20T21:21:17.436Z,86.85
2019-03-20T21:24:22.667Z,86.11
2019-03-20T21:27:09.452Z,86.23
2019-03-20T21:30:06.729Z,86.25
2019-03-20T21:32:44.472Z,86.47
2019-03-20T21:35:41.455Z,86.56
2019-03-20T21:38:10.772Z,86.46
2019-03-20T21:40:42.411Z,86.30
2019-03-20T21:43:33.591Z,86.32
2019-03-20T21:46:24.570Z,85.91
2019-03-20T21:48:53.799Z,85.69
2019-03-20T21:51:22.535Z,85.02
2019-03-20T21:54:09.571Z,85.31
2019-03-20T21:56:46.957Z,85.03
2019-03-20T21:59:35.133Z,85.03
2019-03-20T22:02:29.603Z,84.61
2019-03-20T22:04:58.356Z,84.65
2019-03-20T22:07:27.094Z,84.49
2019-03-20T22:10:10.892Z,84.37
2019-03-20T22:12:42.535Z,84.25
2019-03-20T22:15:26.574Z,83.78
2019-03-20T22:18:13.145Z,84.29
2019-03-20T22:20:51.026Z,84.76
2019-03-20T22:23:44.078Z,84.61
2019-03-20T22:26:15.853Z,85.20
2019-03-20T22:29:04.043Z,85.53
2019-03-20T22:31:35.797Z,85.70
2019-03-20T22:34:36.322Z,85.46
2019-03-20T22:37:05.205Z,85.81
2019-03-20T22:39:56.526Z,86.09
2019-03-20T22:42:28.691Z,86.72
2019-03-20T22:45:00.345Z,86.67
2019-03-20T22:47:40.966Z,87.01
2019-03-20T22:50:17.868Z,86.69
2019-03-20T22:53:21.300Z,87.16
2019-03-20T22:55:52.951Z,87.14
2019-03-20T22:58:44.595Z,87.45
2019-03-20T23:01:19.457Z,87.86
2019-03-20T23:04:09.315Z,88.23
2019-03-20T23:06:38.040Z,87.77
2019-03-20T23:09:08.573Z,87.27
2019-03-20T23:11:37.468Z,87.23
2019-03-20T23:14:06.191Z,87.09
2019-03-20T23:16:35.054Z,86.87
2019-03-20T23:19:04.032Z,86.96
2019-03-20T23:21:32.759Z,87.14
2019-03-20T23:24:01.500Z,87.37
2019-03-20T23:26:30.513Z,86.99
2019-03-20T23:28:59.232Z,86.72
2019-03-20T23:31:27.951Z,86.45
2019-03-20T23:33:56.781Z,86.47
2019-03-20T23:36:25.769Z,86.56
2019-03-20T23:38:54.505Z,85.98
2019-03-20T23:41:23.302Z,86.01
2019-03-20T23:43:53.092Z,86.08
2019-03-20T23:46:22.237Z,85.47
2019-03-20T23:48:54.035Z,85.28
2019-03-20T23:51:25.856Z,85.34
2019-03-20T23:53:55.181Z,85.38
2019-03-20T23:56:25.557Z,85.70
2019-03-20T23:58:54.290Z,86.53
